createdAt,value
2017-11-15T00:00:30.700Z,89.13
2017-11-15T00:02:58.262Z,88.88
2017-11-15T00:05:25.926Z,89.32
2017-11-15T00:07:53.490Z,90.11
2017-11-15T00:10:21.053Z,89.76
2017-11-15T00:12:48.613Z,89.58
2017-11-15T00:15:16.277Z,90.10
2017-11-15T00:17:43.847Z,89.55
2017-11-15T00:20:11.425Z,89.44
2017-11-15T00:22:38.987Z,89.34
2017-11-15T00:25:06.621Z,89.03
2017-11-15T00:27:34.187Z,89.09
2017-11-15T00:30:01.757Z,89.24
2017-11-15T00:32:29.329Z,89.40
2017-11-15T00:34:56.898Z,89.63
2017-11-15T00:37:24.473Z,89.36
2017-11-15T00:39:52.086Z,88.99
2017-11-15T00:42:19.654Z,88.94
2017-11-15T00:44:47.281Z,89.57
2017-11-15T00:47:14.855Z,88.66
2017-11-15T00:49:42.422Z,88.50
2017-11-15T00:52:10.099Z,89.35
2017-11-15T00:54:37.658Z,89.40
2017-11-15T00:57:05.234Z,89.44
2017-11-15T00:59:32.802Z,89.40
2017-11-15T01:02:00.435Z,89.83
2017-11-15T01:04:28.106Z,89.86
2017-11-15T01:06:55.677Z,89.72
2017-11-15T01:09:23.328Z,89.88
2017-11-15T01:11:50.898Z,90.27
2017-11-15T01:14:18.470Z,89.99
2017-11-15T01:16:46.030Z,89.79
2017-11-15T01:19:13.633Z,89.66
2017-11-15T01:21:41.191Z,89.59
2017-11-15T01:24:08.789Z,89.18
2017-11-15T01:26:36.375Z,88.98
2017-11-15T01:29:03.939Z,89.10
2017-11-15T01:31:31.535Z,89.51
2017-11-15T01:33:59.100Z,88.90
2017-11-15T01:36:26.662Z,89.17
2017-11-15T01:38:54.231Z,88.64
2017-11-15T01:41:21.799Z,89.17
2017-11-15T01:43:49.362Z,89.31
2017-11-15T01:46:16.966Z,89.29
2017-11-15T01:48:45.034Z,89.52
2017-11-15T01:51:12.590Z,89.84
2017-11-15T01:53:40.198Z,89.23
2017-11-15T01:56:07.758Z,89.24
2017-11-15T01:58:35.353Z,90.28
2017-11-15T02:01:13.948Z,89.69
2017-11-15T02:03:41.546Z,89.73
2017-11-15T02:06:09.115Z,89.88
2017-11-15T02:08:36.686Z,89.17
2017-11-15T02:11:04.327Z,89.41
2017-11-15T02:13:31.893Z,89.64
2017-11-15T02:15:59.512Z,88.87
2017-11-15T02:18:27.104Z,89.85
2017-11-15T02:20:54.738Z,89.56
2017-11-15T02:23:22.332Z,89.35
2017-11-15T02:25:50.709Z,89.51
2017-11-15T02:28:18.309Z,88.92
2017-11-15T02:30:46.646Z,88.79
2017-11-15T02:33:14.842Z,89.30
2017-11-15T02:35:42.484Z,88.85
2017-11-15T02:38:10.052Z,88.50
2017-11-15T02:40:37.715Z,89.19
2017-11-15T02:43:05.291Z,89.88
2017-11-15T02:45:32.851Z,89.76
2017-11-15T02:48:00.417Z,90.20
2017-11-15T02:50:27.989Z,90.45
2017-11-15T02:52:55.540Z,90.75
2017-11-15T02:55:23.172Z,90.58
2017-11-15T02:57:50.775Z,90.59
2017-11-15T03:00:19.156Z,90.51
2017-11-15T03:02:46.718Z,91.07
2017-11-15T03:05:14.278Z,90.75
2017-11-15T03:07:41.837Z,90.36
2017-11-15T03:10:09.564Z,90.15
2017-11-15T03:12:37.134Z,89.43
2017-11-15T03:15:04.786Z,89.56
2017-11-15T03:17:32.389Z,89.71
2017-11-15T03:20:00.804Z,90.84
2017-11-15T03:22:28.386Z,90.33
2017-11-15T03:24:56.966Z,90.99
2017-11-15T03:27:24.529Z,91.06
2017-11-15T03:29:52.989Z,91.43
2017-11-15T03:32:20.545Z,91.65
2017-11-15T03:34:48.110Z,92.37
2017-11-15T03:37:15.665Z,92.85
2017-11-15T03:39:43.242Z,92.87
2017-11-15T03:42:10.815Z,93.61
2017-11-15T03:44:39.168Z,93.40
2017-11-15T03:47:06.740Z,92.96
2017-11-15T03:49:35.206Z,93.07
2017-11-15T03:52:02.810Z,92.18
2017-11-15T03:54:30.373Z,92.80
2017-11-15T03:56:57.939Z,92.47
2017-11-15T03:59:25.505Z,92.57
2017-11-15T04:01:53.074Z,92.77
2017-11-15T04:04:20.708Z,92.75
2017-11-15T04:06:48.276Z,92.91
2017-11-15T04:09:15.845Z,92.92
2017-11-15T04:11:43.489Z,92.36
2017-11-15T04:14:12.118Z,91.59
2017-11-15T04:16:39.681Z,91.98
2017-11-15T04:19:07.241Z,92.99
2017-11-15T04:21:34.860Z,93.07
2017-11-15T04:24:02.425Z,92.71
2017-11-15T04:26:29.986Z,92.46
2017-11-15T04:28:57.557Z,92.71
2017-11-15T04:31:25.125Z,93.52
2017-11-15T04:33:52.690Z,92.63
2017-11-15T04:36:20.330Z,91.99
2017-11-15T04:38:48.684Z,92.52
2017-11-15T04:41:17.181Z,91.17
2017-11-15T04:43:44.800Z,90.65
2017-11-15T04:46:12.361Z,91.26
2017-11-15T04:48:39.957Z,90.90
2017-11-15T04:51:07.532Z,91.55
2017-11-15T04:53:36.007Z,91.17
2017-11-15T04:56:03.585Z,91.02
2017-11-15T04:58:31.158Z,91.85
2017-11-15T05:00:58.721Z,92.46
2017-11-15T05:03:26.277Z,91.27
2017-11-15T05:05:53.922Z,91.32
2017-11-15T05:08:21.520Z,91.43
2017-11-15T05:10:49.084Z,91.70
2017-11-15T05:13:16.704Z,91.59
2017-11-15T05:15:44.269Z,90.22
2017-11-15T05:18:11.834Z,90.49
2017-11-15T05:20:39.407Z,91.30
2017-11-15T05:23:06.988Z,90.59
2017-11-15T05:25:34.549Z,91.42
2017-11-15T05:28:03.052Z,92.45
2017-11-15T05:30:30.660Z,91.61
2017-11-15T05:32:58.228Z,90.37
2017-11-15T05:35:26.705Z,89.88
2017-11-15T05:37:54.277Z,90.53
2017-11-15T05:40:21.880Z,90.00
2017-11-15T05:42:49.443Z,90.86
2017-11-15T05:45:17.006Z,91.35
2017-11-15T05:47:44.568Z,91.69
2017-11-15T05:50:12.133Z,91.86
2017-11-15T05:52:39.690Z,91.76
2017-11-15T05:55:07.253Z,92.55
2017-11-15T05:57:34.814Z,92.57
2017-11-15T06:00:02.370Z,92.38
2017-11-15T06:02:34.383Z,92.27
2017-11-15T06:05:02.044Z,91.61
2017-11-15T06:07:29.697Z,91.95
2017-11-15T06:09:57.333Z,92.01
2017-11-15T06:12:24.995Z,92.68
2017-11-15T06:14:52.577Z,92.16
2017-11-15T06:17:20.146Z,91.80
2017-11-15T06:19:47.742Z,92.17
2017-11-15T06:22:15.309Z,92.70
2017-11-15T06:24:42.922Z,92.21
2017-11-15T06:27:10.463Z,92.70
2017-11-15T06:29:38.101Z,91.79
2017-11-15T06:32:05.804Z,91.40
2017-11-15T06:34:33.484Z,91.56
2017-11-15T06:37:01.058Z,91.85
2017-11-15T06:39:28.568Z,91.59
2017-11-15T06:41:56.135Z,91.10
2017-11-15T06:44:23.701Z,91.20
2017-11-15T06:46:51.282Z,91.84
2017-11-15T06:49:18.864Z,91.40
2017-11-15T06:51:46.516Z,91.18
2017-11-15T06:54:14.084Z,91.44
2017-11-15T06:56:41.654Z,91.44
2017-11-15T06:59:10.005Z,91.14
2017-11-15T07:01:38.679Z,91.52
2017-11-15T07:04:06.238Z,90.97
2017-11-15T07:06:33.838Z,91.95
2017-11-15T07:09:01.402Z,91.49
2017-11-15T07:11:29.004Z,91.40
2017-11-15T07:13:56.565Z,91.64
2017-11-15T07:16:24.171Z,91.08
2017-11-15T07:18:51.738Z,91.19
2017-11-15T07:21:19.382Z,91.60
2017-11-15T07:23:46.945Z,91.41
2017-11-15T07:26:14.601Z,92.64
2017-11-15T07:28:42.205Z,92.04
2017-11-15T07:31:10.643Z,92.58
2017-11-15T07:33:38.210Z,92.59
2017-11-15T07:36:05.776Z,92.23
2017-11-15T07:38:33.431Z,91.95
2017-11-15T07:41:01.013Z,91.56
2017-11-15T07:43:28.660Z,91.49
2017-11-15T07:45:56.229Z,92.47
2017-11-15T07:48:23.806Z,91.07
2017-11-15T07:50:51.433Z,91.56
2017-11-15T07:53:19.821Z,90.92
2017-11-15T07:55:48.301Z,90.46
2017-11-15T07:58:15.870Z,91.00
2017-11-15T08:00:43.487Z,90.46
2017-11-15T08:03:11.050Z,90.42
2017-11-15T08:05:38.614Z,90.50
2017-11-15T08:08:07.132Z,90.55
2017-11-15T08:10:34.706Z,89.84
2017-11-15T08:13:02.273Z,90.25
2017-11-15T08:15:29.845Z,89.88
2017-11-15T08:17:57.469Z,90.22
2017-11-15T08:20:25.032Z,89.72
2017-11-15T08:22:52.603Z,90.45
2017-11-15T08:25:20.178Z,90.33
2017-11-15T08:27:47.812Z,89.24
2017-11-15T08:30:15.474Z,87.88
2017-11-15T08:32:43.146Z,88.62
2017-11-15T08:35:10.727Z,88.92
2017-11-15T08:37:39.289Z,88.99
2017-11-15T08:40:06.860Z,89.18
2017-11-15T08:42:34.438Z,89.19
2017-11-15T08:45:02.007Z,88.55
2017-11-15T08:47:29.582Z,89.02
2017-11-15T08:49:57.183Z,88.96
2017-11-15T08:52:24.921Z,88.43
2017-11-15T08:54:52.486Z,88.39
2017-11-15T08:57:20.117Z,88.44
2017-11-15T08:59:47.703Z,88.94
2017-11-15T09:02:15.283Z,88.24
2017-11-15T09:04:42.855Z,86.64
2017-11-15T09:07:10.424Z,87.22
2017-11-15T09:09:37.986Z,87.30
2017-11-15T09:12:05.607Z,86.87
2017-11-15T09:14:34.128Z,87.07
2017-11-15T09:17:01.697Z,87.16
2017-11-15T09:19:29.262Z,86.97
2017-11-15T09:21:56.829Z,87.76
2017-11-15T09:24:24.402Z,87.96
2017-11-15T09:26:51.979Z,87.26
2017-11-15T09:29:19.598Z,87.53
2017-11-15T09:31:47.257Z,85.76
2017-11-15T09:34:15.464Z,86.11
2017-11-15T09:36:43.842Z,86.89
2017-11-15T09:39:11.411Z,87.54
2017-11-15T09:41:38.978Z,87.34
2017-11-15T09:44:06.555Z,87.63
2017-11-15T09:46:34.121Z,87.66
2017-11-15T09:49:01.685Z,87.00
2017-11-15T09:51:30.098Z,86.60
2017-11-15T09:53:57.673Z,85.17
2017-11-15T09:56:25.241Z,86.78
2017-11-15T09:58:53.657Z,85.75
2017-11-15T10:01:21.306Z,86.95
2017-11-15T10:03:48.922Z,85.88
2017-11-15T10:06:16.486Z,85.56
2017-11-15T10:08:44.057Z,85.68
2017-11-15T10:11:11.789Z,84.85
2017-11-15T10:13:39.354Z,83.39
2017-11-15T10:16:06.954Z,85.35
2017-11-15T10:18:34.530Z,84.34
2017-11-15T10:21:02.097Z,85.62
2017-11-15T10:23:29.658Z,84.10
2017-11-15T10:25:57.269Z,85.43
2017-11-15T10:28:24.942Z,84.53
2017-11-15T10:30:52.521Z,85.59
2017-11-15T10:33:20.098Z,85.51
2017-11-15T10:35:47.661Z,85.08
2017-11-15T10:38:15.228Z,85.04
2017-11-15T10:40:42.825Z,84.28
2017-11-15T10:43:10.389Z,85.85
2017-11-15T10:45:38.067Z,85.35
2017-11-15T10:48:08.534Z,85.50
2017-11-15T10:50:36.109Z,84.38
2017-11-15T10:53:03.678Z,86.00
2017-11-15T10:55:31.254Z,84.39
2017-11-15T10:57:58.826Z,83.21
2017-11-15T11:00:32.006Z,81.61
2017-11-15T11:02:59.582Z,80.43
2017-11-15T11:05:27.157Z,80.41
2017-11-15T11:07:54.725Z,80.99
2017-11-15T11:10:22.305Z,83.44
2017-11-15T11:12:49.887Z,82.77
2017-11-15T11:15:17.502Z,82.03
2017-11-15T11:17:45.836Z,81.53
2017-11-15T11:20:13.408Z,82.84
2017-11-15T11:22:41.042Z,82.56
2017-11-15T11:25:08.626Z,83.60
2017-11-15T11:27:36.201Z,83.26
2017-11-15T11:30:04.478Z,83.34
2017-11-15T11:32:32.066Z,82.79
2017-11-15T11:34:59.645Z,83.10
2017-11-15T11:37:27.207Z,83.71
2017-11-15T11:39:54.790Z,83.52
2017-11-15T11:42:22.363Z,82.35
2017-11-15T11:44:49.955Z,83.54
2017-11-15T11:47:17.518Z,83.46
2017-11-15T11:49:45.789Z,81.26
2017-11-15T11:52:13.356Z,80.38
2017-11-15T11:54:41.821Z,79.87
2017-11-15T11:57:10.397Z,82.29
2017-11-15T11:59:37.966Z,82.10
2017-11-15T12:02:05.540Z,82.90
2017-11-15T12:04:33.237Z,82.29
2017-11-15T12:07:00.837Z,80.81
2017-11-15T12:09:28.410Z,81.92
2017-11-15T12:11:56.914Z,82.87
2017-11-15T12:14:24.477Z,81.76
2017-11-15T12:16:52.858Z,81.78
2017-11-15T12:19:21.118Z,82.54
2017-11-15T12:21:48.705Z,83.28
2017-11-15T12:24:17.090Z,83.04
2017-11-15T12:26:45.440Z,83.77
2017-11-15T12:29:13.130Z,81.83
2017-11-15T12:31:40.790Z,83.30
2017-11-15T12:34:08.448Z,83.57
2017-11-15T12:36:36.957Z,83.03
2017-11-15T12:39:05.244Z,83.39
2017-11-15T12:41:32.820Z,83.10
2017-11-15T12:44:00.392Z,81.75
2017-11-15T12:46:27.957Z,82.02
2017-11-15T12:48:55.528Z,82.72
2017-11-15T12:51:23.093Z,82.15
2017-11-15T12:53:50.671Z,82.84
2017-11-15T12:56:18.240Z,82.20
2017-11-15T12:58:45.824Z,81.94
2017-11-15T13:01:13.396Z,83.07
2017-11-15T13:03:41.025Z,82.47
2017-11-15T13:06:08.618Z,82.73
2017-11-15T13:08:36.186Z,82.13
2017-11-15T13:11:03.877Z,83.27
2017-11-15T13:13:31.447Z,83.43
2017-11-15T13:15:59.134Z,84.08
2017-11-15T13:18:26.712Z,84.72
2017-11-15T13:20:54.287Z,84.75
2017-11-15T13:23:21.913Z,84.23
2017-11-15T13:25:49.481Z,83.80
2017-11-15T13:28:17.056Z,84.36
2017-11-15T13:30:44.625Z,84.62
2017-11-15T13:33:12.193Z,85.26
2017-11-15T13:35:40.488Z,84.26
2017-11-15T13:38:08.057Z,83.74
2017-11-15T13:40:35.653Z,82.94
2017-11-15T13:43:03.329Z,83.67
2017-11-15T13:45:30.947Z,83.75
2017-11-15T13:47:58.513Z,82.67
2017-11-15T13:50:26.078Z,84.31
2017-11-15T13:52:53.654Z,84.62
2017-11-15T13:55:21.225Z,84.70
2017-11-15T13:57:48.801Z,84.58
2017-11-15T14:00:17.573Z,84.05
2017-11-15T14:02:45.160Z,83.08
2017-11-15T14:05:12.733Z,83.47
2017-11-15T14:07:40.354Z,82.96
2017-11-15T14:10:08.936Z,83.17
2017-11-15T14:12:37.286Z,83.77
2017-11-15T14:15:04.849Z,84.08
2017-11-15T14:17:33.258Z,84.01
2017-11-15T14:20:00.825Z,84.02
2017-11-15T14:22:28.433Z,84.54
2017-11-15T14:24:56.000Z,84.80
2017-11-15T14:27:24.421Z,85.32
2017-11-15T14:29:52.090Z,85.73
2017-11-15T14:32:19.753Z,86.23
2017-11-15T14:34:48.098Z,85.54
2017-11-15T14:37:15.706Z,86.50
2017-11-15T14:39:43.279Z,86.27
2017-11-15T14:42:10.849Z,86.04
2017-11-15T14:44:39.403Z,86.54
2017-11-15T14:47:06.985Z,85.59
2017-11-15T14:49:34.582Z,86.92
2017-11-15T14:52:02.143Z,86.53
2017-11-15T14:54:29.708Z,86.26
2017-11-15T14:56:57.308Z,86.34
2017-11-15T14:59:24.970Z,86.72
2017-11-15T15:01:52.541Z,86.70
2017-11-15T15:04:20.118Z,86.57
2017-11-15T15:06:48.366Z,86.20
2017-11-15T15:09:16.745Z,86.47
2017-11-15T15:11:45.085Z,86.42
2017-11-15T15:14:12.652Z,87.05
2017-11-15T15:16:40.214Z,86.48
2017-11-15T15:19:07.824Z,86.64
2017-11-15T15:21:35.391Z,87.48
2017-11-15T15:24:02.997Z,87.27
2017-11-15T15:26:30.565Z,88.29
2017-11-15T15:28:58.154Z,88.09
2017-11-15T15:31:25.817Z,89.32
2017-11-15T15:33:53.474Z,88.31
2017-11-15T15:36:21.955Z,88.82
2017-11-15T15:38:50.443Z,87.25
2017-11-15T15:41:19.025Z,87.59
2017-11-15T15:43:47.444Z,87.77
2017-11-15T15:46:15.012Z,87.81
2017-11-15T15:48:42.727Z,88.56
2017-11-15T15:51:10.331Z,88.96
2017-11-15T15:53:37.898Z,90.09
2017-11-15T15:56:05.462Z,90.03
2017-11-15T15:58:33.077Z,90.24
2017-11-15T16:01:00.644Z,89.82
2017-11-15T16:03:28.258Z,90.64
2017-11-15T16:05:56.753Z,90.61
2017-11-15T16:08:25.104Z,90.72
2017-11-15T16:10:53.374Z,90.23
2017-11-15T16:13:21.773Z,91.49
2017-11-15T16:15:49.343Z,91.68
2017-11-15T16:18:16.905Z,91.05
2017-11-15T16:20:44.473Z,92.22
2017-11-15T16:23:12.040Z,91.62
2017-11-15T16:25:40.498Z,91.96
2017-11-15T16:28:08.957Z,91.67
2017-11-15T16:30:36.528Z,91.32
2017-11-15T16:33:04.100Z,92.14
2017-11-15T16:35:31.663Z,92.61
2017-11-15T16:38:00.080Z,92.46
2017-11-15T16:40:28.557Z,92.95
2017-11-15T16:42:56.885Z,91.92
2017-11-15T16:45:24.452Z,92.06
2017-11-15T16:47:52.134Z,91.58
2017-11-15T16:50:19.707Z,91.14
2017-11-15T16:52:47.871Z,92.63
2017-11-15T16:55:16.285Z,92.06
2017-11-15T16:57:44.436Z,93.35
2017-11-15T17:00:13.807Z,92.56
2017-11-15T17:02:41.425Z,93.00
2017-11-15T17:05:08.996Z,92.49
2017-11-15T17:07:36.603Z,93.35
2017-11-15T17:10:04.188Z,94.13
2017-11-15T17:12:31.761Z,92.59
2017-11-15T17:14:59.332Z,93.29
2017-11-15T17:17:27.910Z,94.06
2017-11-15T17:19:56.266Z,93.97
2017-11-15T17:22:24.645Z,93.48
2017-11-15T17:24:52.213Z,93.96
2017-11-15T17:27:19.893Z,93.74
2017-11-15T17:29:47.461Z,93.48
2017-11-15T17:32:15.635Z,93.42
2017-11-15T17:34:44.129Z,93.70
2017-11-15T17:37:11.772Z,93.45
2017-11-15T17:39:40.219Z,93.16
2017-11-15T17:42:08.514Z,93.99
2017-11-15T17:44:36.657Z,94.56
2017-11-15T17:47:04.997Z,94.86
2017-11-15T17:49:32.567Z,95.17
2017-11-15T17:52:00.140Z,95.28
2017-11-15T17:54:27.731Z,95.29
2017-11-15T17:56:56.360Z,95.90
2017-11-15T17:59:25.787Z,94.69
2017-11-15T18:01:54.255Z,94.26
2017-11-15T18:04:21.902Z,94.57
2017-11-15T18:06:50.298Z,95.37
2017-11-15T18:09:19.229Z,95.23
2017-11-15T18:11:47.687Z,95.77
2017-11-15T18:14:15.825Z,94.72
2017-11-15T18:16:43.502Z,94.46
2017-11-15T18:19:11.099Z,94.97
2017-11-15T18:21:40.230Z,95.02
2017-11-15T18:24:08.718Z,95.26
2017-11-15T18:26:37.130Z,95.54
2017-11-15T18:29:05.493Z,95.43
2017-11-15T18:31:33.193Z,95.78
2017-11-15T18:34:01.471Z,95.52
2017-11-15T18:36:29.139Z,95.60
2017-11-15T18:38:56.713Z,94.75
2017-11-15T18:41:24.284Z,94.54
2017-11-15T18:43:52.461Z,95.48
2017-11-15T18:46:20.083Z,96.09
2017-11-15T18:48:48.434Z,95.43
2017-11-15T18:51:16.797Z,95.34
2017-11-15T18:53:44.370Z,95.39
2017-11-15T18:56:11.939Z,95.71
2017-11-15T18:58:39.502Z,95.57
2017-11-15T19:01:07.061Z,95.10
2017-11-15T19:03:35.480Z,95.53
2017-11-15T19:06:03.106Z,95.36
2017-11-15T19:08:30.937Z,95.63
2017-11-15T19:10:58.497Z,95.53
2017-11-15T19:13:27.027Z,95.19
2017-11-15T19:15:55.515Z,95.98
2017-11-15T19:18:23.846Z,95.61
2017-11-15T19:20:52.296Z,95.19
2017-11-15T19:23:20.820Z,94.92
2017-11-15T19:25:48.386Z,94.01
2017-11-15T19:28:15.952Z,95.16
2017-11-15T19:30:43.510Z,95.55
2017-11-15T19:33:11.188Z,94.99
2017-11-15T19:35:39.649Z,94.65
2017-11-15T19:38:08.150Z,94.38
2017-11-15T19:40:35.709Z,94.50
2017-11-15T19:43:03.273Z,94.11
2017-11-15T19:45:31.746Z,95.27
2017-11-15T19:48:00.091Z,94.63
2017-11-15T19:50:28.601Z,94.91
2017-11-15T19:52:56.866Z,94.89
2017-11-15T19:55:24.437Z,94.82
2017-11-15T19:57:52.017Z,95.61
2017-11-15T20:00:20.387Z,95.00
2017-11-15T20:02:48.774Z,94.79
2017-11-15T20:05:17.120Z,94.73
2017-11-15T20:07:44.710Z,94.34
2017-11-15T20:10:12.277Z,95.03
2017-11-15T20:12:39.899Z,94.75
2017-11-15T20:15:08.513Z,95.57
2017-11-15T20:17:36.857Z,94.74
2017-11-15T20:20:04.425Z,94.55
2017-11-15T20:22:31.994Z,94.81
2017-11-15T20:24:59.559Z,94.59
2017-11-15T20:27:27.126Z,94.55
2017-11-15T20:29:54.871Z,94.50
2017-11-15T20:32:22.489Z,95.61
2017-11-15T20:34:50.964Z,94.98
2017-11-15T20:37:19.315Z,95.42
2017-11-15T20:39:46.991Z,95.53
2017-11-15T20:42:14.593Z,95.20
2017-11-15T20:44:42.169Z,94.68
2017-11-15T20:47:09.735Z,94.64
2017-11-15T20:49:38.234Z,94.99
2017-11-15T20:52:06.599Z,95.47
2017-11-15T20:54:34.302Z,95.18
2017-11-15T20:57:02.681Z,94.76
2017-11-15T20:59:31.053Z,95.31
2017-11-15T21:01:59.545Z,95.58
2017-11-15T21:04:27.881Z,94.83
2017-11-15T21:06:56.245Z,95.33
2017-11-15T21:09:24.678Z,95.37
2017-11-15T21:11:53.270Z,96.10
2017-11-15T21:14:21.653Z,95.57
2017-11-15T21:16:50.042Z,95.79
2017-11-15T21:19:18.610Z,96.28
2017-11-15T21:21:47.198Z,96.28
2017-11-15T21:24:15.583Z,95.90
2017-11-15T21:26:43.942Z,96.26
2017-11-15T21:29:12.299Z,96.10
2017-11-15T21:31:39.901Z,95.84
2017-11-15T21:34:08.247Z,96.11
2017-11-15T21:36:36.610Z,96.55
2017-11-15T21:39:05.101Z,96.76
2017-11-15T21:41:32.667Z,96.80
2017-11-15T21:44:01.250Z,96.74
2017-11-15T21:46:29.659Z,96.16
2017-11-15T21:48:57.231Z,96.39
2017-11-15T21:51:25.669Z,96.00
2017-11-15T21:53:54.029Z,96.29
2017-11-15T21:56:22.405Z,96.40
2017-11-15T21:58:50.866Z,96.55
2017-11-15T22:01:18.473Z,96.32
2017-11-15T22:03:46.037Z,96.33
2017-11-15T22:06:13.597Z,96.28
2017-11-15T22:08:41.204Z,96.55
2017-11-15T22:11:09.606Z,95.69
2017-11-15T22:13:37.181Z,95.68
2017-11-15T22:16:05.632Z,95.84
2017-11-15T22:18:33.197Z,96.08
2017-11-15T22:21:01.652Z,95.51
2017-11-15T22:23:29.257Z,95.36
2017-11-15T22:25:56.814Z,94.87
2017-11-15T22:28:24.373Z,95.01
2017-11-15T22:30:52.732Z,95.03
2017-11-15T22:33:20.377Z,95.30
2017-11-15T22:35:47.945Z,95.17
2017-11-15T22:38:15.603Z,95.58
2017-11-15T22:40:43.202Z,95.20
2017-11-15T22:43:11.552Z,95.17
2017-11-15T22:45:39.834Z,95.13
2017-11-15T22:48:08.302Z,94.38
2017-11-15T22:50:35.879Z,95.10
2017-11-15T22:53:04.269Z,95.04
2017-11-15T22:55:32.606Z,95.32
2017-11-15T22:58:00.169Z,95.06
2017-11-15T23:00:27.732Z,96.04
2017-11-15T23:02:56.195Z,96.07
2017-11-15T23:05:24.496Z,96.79
2017-11-15T23:07:52.913Z,96.40
2017-11-15T23:10:20.482Z,96.13
2017-11-15T23:12:49.026Z,95.68
2017-11-15T23:15:17.377Z,95.63
2017-11-15T23:17:45.721Z,95.63
2017-11-15T23:20:13.284Z,95.04
2017-11-15T23:22:41.669Z,95.84
2017-11-15T23:25:10.029Z,95.52
2017-11-15T23:27:38.520Z,96.04
2017-11-15T23:30:06.092Z,96.72
2017-11-15T23:32:33.652Z,95.76
2017-11-15T23:35:01.949Z,95.46
2017-11-15T23:37:29.562Z,95.39
2017-11-15T23:39:57.146Z,95.44
2017-11-15T23:42:24.735Z,95.45
2017-11-15T23:44:52.337Z,95.45
2017-11-15T23:47:19.944Z,96.67
2017-11-15T23:49:47.513Z,95.96
2017-11-15T23:52:15.089Z,95.72
2017-11-15T23:54:42.673Z,96.42
2017-11-15T23:57:10.282Z,96.06
2017-11-15T23:59:37.844Z,96.28
